Time;durP1;ratioP1;P1;durP2;ratioP2;P2;SDS_P1;SDS_P2;PMS_P1;PMS_P2;Temp;Humidity;BMP_temperature;BMP_pressure;BME280_temperature;BME280_humidity;BME280_pressure;Samples;Min_cycle;Max_cycle;Signal;HPM_P1;HPM_P2
2022/03/29 00:01:51;;;;;;;8.88;7.08;;;;;;;11.86;31.03;98340.42;1726710;82;20931;-68
2022/03/29 00:04:18;;;;;;;8.38;6.17;;;;;;;11.85;31.08;98343.28;1729344;82;21037;-66
2022/03/29 00:06:46;;;;;;;8.23;6.87;;;;;;;11.82;31.21;98338.36;1728245;82;21392;-67
2022/03/29 00:09:14;;;;;;;9.53;6.80;;;;;;;11.78;31.34;98338.76;1728450;82;20922;-66
2022/03/29 00:11:43;;;;;;;7.10;6.25;;;;;;;11.75;31.47;98341.86;1727442;82;20915;-67
2022/03/29 00:14:12;;;;;;;8.13;6.92;;;;;;;11.73;31.58;98337.22;1728441;82;21005;-67
2022/03/29 00:16:40;;;;;;;8.43;6.90;;;;;;;11.72;31.67;98334.27;1715729;82;20943;-66
2022/03/29 00:19:07;;;;;;;7.25;6.12;;;;;;;11.73;31.74;98332.44;1728173;82;21591;-68
2022/03/29 00:21:35;;;;;;;6.42;5.83;;;;;;;11.72;31.81;98337.44;1727692;82;21514;-66
2022/03/29 00:24:03;;;;;;;8.00;6.05;;;;;;;11.72;31.88;98334.27;1727442;83;21425;-67
2022/03/29 00:26:30;;;;;;;7.87;6.12;;;;;;;11.70;32.00;98328.34;1728584;82;20981;-67
2022/03/29 00:28:58;;;;;;;8.60;6.25;;;;;;;11.71;32.07;98329.13;1728666;82;20978;-70
2022/03/29 00:31:26;;;;;;;9.38;6.78;;;;;;;11.71;32.16;98330.46;1723135;82;20991;-66
2022/03/29 00:33:53;;;;;;;10.23;6.10;;;;;;;11.69;32.30;98325.35;1710903;83;21854;-66
2022/03/29 00:36:20;;;;;;;7.83;5.25;;;;;;;11.70;32.35;98323.52;1729272;82;20970;-66
2022/03/29 00:38:49;;;;;;;9.10;5.85;;;;;;;11.67;32.44;98315.39;1727835;82;20990;-67
2022/03/29 00:41:16;;;;;;;7.37;5.90;;;;;;;11.63;32.56;98304.81;1727096;82;20954;-66
2022/03/29 00:43:45;;;;;;;10.10;6.37;;;;;;;11.62;32.63;98310.36;1718629;82;20876;-65
2022/03/29 00:46:12;;;;;;;7.58;5.90;;;;;;;11.61;32.67;98306.05;1757464;81;21240;-67
2022/03/29 00:48:39;;;;;;;8.40;5.35;;;;;;;11.58;32.74;98301.13;1750917;80;20930;-67
2022/03/29 00:51:07;;;;;;;8.15;5.80;;;;;;;11.56;32.83;98301.84;1761126;81;20990;-67
2022/03/29 00:53:34;;;;;;;7.72;5.75;;;;;;;11.54;32.92;98302.58;1761289;80;21064;-66
2022/03/29 00:56:02;;;;;;;7.45;6.05;;;;;;;11.52;32.99;98304.62;1757512;80;21050;-66
2022/03/29 00:58:29;;;;;;;7.00;5.55;;;;;;;11.50;33.09;98304.81;1762149;80;21275;-67
2022/03/29 01:01:01;;;;;;;5.92;5.30;;;;;;;11.48;33.13;98300.21;1762553;80;20997;-67
2022/03/29 01:03:25;;;;;;;6.92;5.70;;;;;;;11.47;33.21;98297.77;1722677;83;21452;-67
2022/03/29 01:05:53;;;;;;;6.80;6.10;;;;;;;11.44;33.25;98301.66;1724268;83;20963;-67
2022/03/29 01:08:21;;;;;;;7.00;5.33;;;;;;;11.40;33.35;98301.73;1709164;84;20951;-67
2022/03/29 01:10:50;;;;;;;8.43;6.00;;;;;;;11.40;33.42;98293.75;1724644;83;21445;-66
2022/03/29 01:13:19;;;;;;;6.97;5.90;;;;;;;11.37;33.54;98287.50;1724690;83;21056;-66
2022/03/29 01:15:46;;;;;;;10.68;6.33;;;;;;;11.36;33.60;98290.38;1705621;84;21438;-67
2022/03/29 01:18:13;;;;;;;6.55;5.95;;;;;;;11.32;33.71;98287.80;1724316;83;21512;-67
2022/03/29 01:20:42;;;;;;;6.80;5.92;;;;;;;11.30;33.84;98284.52;1715114;83;20859;-66
2022/03/29 01:23:09;;;;;;;8.63;6.28;;;;;;;11.28;33.97;98283.91;1709162;83;21135;-66
2022/03/29 01:25:40;;;;;;;8.40;6.25;;;;;;;11.25;34.05;98280.32;1723662;83;20946;-67
2022/03/29 01:28:08;;;;;;;8.00;6.58;;;;;;;11.23;34.13;98273.88;1709197;84;20955;-65
2022/03/29 01:30:35;;;;;;;8.63;6.83;;;;;;;11.22;34.21;98268.74;1705689;83;21083;-66
2022/03/29 01:33:06;;;;;;;8.40;6.50;;;;;;;11.18;34.29;98268.35;1724795;83;20903;-67
2022/03/29 01:35:33;;;;;;;9.90;7.17;;;;;;;11.15;34.41;98261.59;1716318;83;21443;-67
2022/03/29 01:38:01;;;;;;;7.53;6.47;;;;;;;11.11;34.48;98265.66;1708675;84;22169;-67
2022/03/29 01:40:28;;;;;;;8.48;6.40;;;;;;;11.07;34.62;98259.12;1724017;83;20994;-67
2022/03/29 01:42:59;;;;;;;8.33;6.90;;;;;;;11.02;34.73;98254.92;1723353;83;21025;-66
2022/03/29 01:45:28;;;;;;;6.78;6.08;;;;;;;10.99;34.85;98253.98;1706480;83;21014;-66
2022/03/29 01:47:56;;;;;;;8.78;6.08;;;;;;;10.98;34.95;98255.50;1756404;81;21890;-67
2022/03/29 01:50:23;;;;;;;7.62;5.90;;;;;;;10.95;35.03;98244.75;1756053;81;21412;-67
2022/03/29 01:52:50;;;;;;;11.35;6.92;;;;;;;10.91;35.16;98238.20;1757392;81;20986;-67
2022/03/29 01:55:19;;;;;;;9.68;6.00;;;;;;;10.90;35.26;98237.06;1754726;81;21551;-66
2022/03/29 01:57:47;;;;;;;7.65;6.85;;;;;;;10.88;35.37;98238.61;1753840;81;20895;-67
2022/03/29 02:00:31;;;;;;;9.08;6.33;;;;;;;10.87;35.41;98235.63;1756202;81;21441;-67
2022/03/29 02:03:00;;;;;;;7.72;5.92;;;;;;;10.84;35.47;98236.56;1754326;81;21523;-66
2022/03/29 02:05:27;;;;;;;9.50;6.60;;;;;;;10.81;35.60;98228.47;1751250;81;21044;-66
2022/03/29 02:07:54;;;;;;;7.25;6.20;;;;;;;10.79;35.71;98229.19;1756547;81;20871;-66
2022/03/29 02:10:22;;;;;;;7.75;6.20;;;;;;;10.75;35.87;98226.61;1754048;81;20993;-65
2022/03/29 02:12:50;;;;;;;9.15;6.40;;;;;;;10.72;36.01;98225.67;1755225;81;20938;-66
2022/03/29 02:15:19;;;;;;;8.58;6.55;;;;;;;10.68;36.12;98228.44;1755997;81;20942;-66
2022/03/29 02:17:52;;;;;;;9.45;6.35;;;;;;;10.66;36.16;98226.50;1755242;81;21527;-67
2022/03/29 02:20:22;;;;;;;8.18;6.70;;;;;;;10.65;36.30;98226.17;1753983;81;21507;-68
2022/03/29 02:22:49;;;;;;;6.75;6.03;;;;;;;10.65;36.40;98235.48;1757572;81;20966;-67
2022/03/29 02:25:16;;;;;;;9.70;5.78;;;;;;;10.64;36.50;98233.84;1756161;81;21251;-66
2022/03/29 02:27:45;;;;;;;8.15;6.05;;;;;;;10.62;36.67;98227.91;1756139;81;20919;-66
2022/03/29 02:30:16;;;;;;;7.58;6.53;;;;;;;10.59;36.80;98224.81;1757407;81;21490;-67
2022/03/29 02:32:43;;;;;;;9.23;6.05;;;;;;;10.56;36.97;98229.23;1743255;81;21484;-67
2022/03/29 02:35:10;;;;;;;7.22;6.30;;;;;;;10.56;37.07;98227.91;1753631;81;20947;-67
2022/03/29 02:37:38;;;;;;;8.53;6.00;;;;;;;10.54;37.17;98231.56;1754962;81;22476;-66
2022/03/29 02:40:06;;;;;;;9.58;6.45;;;;;;;10.54;37.28;98233.41;1756641;81;20891;-66
2022/03/29 02:42:43;;;;;;;7.50;6.25;;;;;;;10.52;37.38;98229.62;1743268;81;20937;-67
2022/03/29 02:45:16;;;;;;;8.18;5.70;;;;;;;10.49;37.52;98228.69;1718640;83;20990;-67
2022/03/29 02:47:47;;;;;;;8.10;6.83;;;;;;;10.49;37.68;98227.86;1745802;81;20918;-67
2022/03/29 02:50:15;;;;;;;9.10;6.03;;;;;;;10.51;37.70;98221.83;1754369;81;21970;-65
2022/03/29 02:52:49;;;;;;;6.58;5.87;;;;;;;10.49;37.83;98219.89;1757547;81;20935;-66
2022/03/29 02:55:18;;;;;;;7.03;6.25;;;;;;;10.47;37.91;98220.10;1758458;81;20907;-66
2022/03/29 02:57:46;;;;;;;10.25;6.80;;;;;;;10.48;38.03;98211.62;1755293;81;20967;-66
2022/03/29 03:00:16;;;;;;;9.18;7.22;;;;;;;10.47;38.16;98213.95;1757924;81;20976;-67
2022/03/29 03:02:47;;;;;;;9.45;6.87;;;;;;;10.44;38.36;98215.17;1745451;81;21627;-66
2022/03/29 03:05:15;;;;;;;9.05;7.20;;;;;;;10.43;38.48;98222.00;1756127;81;21404;-66
2022/03/29 03:07:43;;;;;;;9.25;7.33;;;;;;;10.40;38.61;98221.10;1755632;81;20894;-68
2022/03/29 03:10:11;;;;;;;10.18;7.10;;;;;;;10.39;38.78;98222.11;1755863;81;20902;-68
2022/03/29 03:12:42;;;;;;;8.20;6.65;;;;;;;10.36;38.89;98225.16;1742514;81;21563;-67
2022/03/29 03:15:14;;;;;;;9.63;7.08;;;;;;;10.36;39.04;98222.00;1753796;81;21892;-66
2022/03/29 03:17:42;;;;;;;8.08;6.70;;;;;;;10.32;39.29;98222.60;1746750;81;20918;-67
2022/03/29 03:20:11;;;;;;;8.53;6.72;;;;;;;10.33;39.32;98218.91;1753769;80;20946;-65
2022/03/29 03:22:38;;;;;;;9.93;6.45;;;;;;;10.30;39.42;98208.66;1757560;81;20994;-66
2022/03/29 03:25:07;;;;;;;8.00;6.75;;;;;;;10.29;39.53;98207.05;1756603;81;21551;-68
2022/03/29 03:27:38;;;;;;;8.35;6.60;;;;;;;10.26;39.63;98212.25;1743567;81;21257;-67
2022/03/29 03:30:07;;;;;;;9.78;7.03;;;;;;;10.22;39.83;98204.34;1757703;81;20989;-66
2022/03/29 03:32:35;;;;;;;10.43;7.65;;;;;;;10.22;39.91;98210.20;1741563;81;20989;-66
2022/03/29 03:35:04;;;;;;;10.43;8.30;;;;;;;10.20;39.95;98206.39;1752794;81;21061;-67
2022/03/29 03:37:33;;;;;;;12.80;8.40;;;;;;;10.20;40.07;98209.05;1744268;81;20996;-66
2022/03/29 03:40:02;;;;;;;9.33;8.03;;;;;;;10.17;40.20;98213.42;1755485;80;21388;-67
2022/03/29 03:42:30;;;;;;;9.60;7.67;;;;;;;10.17;40.31;98208.61;1756228;81;20933;-67
2022/03/29 03:44:58;;;;;;;10.13;8.03;;;;;;;10.19;40.33;98216.73;1751611;81;21022;-67
2022/03/29 03:47:27;;;;;;;9.03;7.92;;;;;;;10.18;40.45;98211.59;1752666;81;20911;-66
2022/03/29 03:49:54;;;;;;;8.85;7.70;;;;;;;10.19;40.50;98217.23;1753958;81;20918;-67
2022/03/29 03:52:21;;;;;;;9.18;8.28;;;;;;;10.18;40.57;98215.58;1754135;81;21316;-67
2022/03/29 03:54:49;;;;;;;11.45;7.87;;;;;;;10.18;40.67;98217.73;1756270;81;20974;-67
2022/03/29 03:57:18;;;;;;;9.75;7.65;;;;;;;10.19;40.79;98212.73;1758555;81;21030;-65
2022/03/29 03:59:48;;;;;;;13.53;8.70;;;;;;;10.22;40.81;98214.98;1753795;81;20915;-66
2022/03/29 04:02:15;;;;;;;9.70;7.35;;;;;;;10.25;40.84;98215.91;1754033;81;20979;-66
2022/03/29 04:04:44;;;;;;;11.40;8.58;;;;;;;10.29;40.89;98210.53;1757038;81;20987;-68
2022/03/29 04:07:12;;;;;;;10.70;7.83;;;;;;;10.33;40.89;98206.94;1757614;81;21454;-66
2022/03/29 04:09:39;;;;;;;13.53;8.23;;;;;;;10.34;40.96;98209.92;1731226;81;21508;-66
2022/03/29 04:12:09;;;;;;;9.93;8.43;;;;;;;10.39;41.01;98212.80;1757570;81;20994;-67
2022/03/29 04:14:37;;;;;;;10.60;8.18;;;;;;;10.41;41.01;98209.42;1743976;81;21544;-68
2022/03/29 04:17:06;;;;;;;8.75;7.47;;;;;;;10.46;41.05;98212.30;1756841;80;21129;-67
2022/03/29 04:19:33;;;;;;;9.58;8.00;;;;;;;10.52;41.03;98205.69;1752763;81;20916;-67
2022/03/29 04:22:00;;;;;;;10.63;7.62;;;;;;;10.59;40.98;98205.70;1755476;81;20934;-66
2022/03/29 04:24:28;;;;;;;12.40;8.15;;;;;;;10.68;40.87;98203.17;1755572;81;21013;-66
2022/03/29 04:26:56;;;;;;;12.53;9.48;;;;;;;10.70;40.85;98198.47;1757717;81;21444;-66
2022/03/29 04:29:23;;;;;;;14.60;8.75;;;;;;;10.71;40.83;98197.45;1756265;81;21242;-67
2022/03/29 04:31:52;;;;;;;12.58;9.30;;;;;;;10.70;40.86;98191.81;1755091;81;21006;-68
2022/03/29 04:34:19;;;;;;;10.13;8.50;;;;;;;10.70;40.97;98196.31;1753646;81;21041;-66
2022/03/29 04:36:47;;;;;;;10.63;8.95;;;;;;;10.72;40.92;98188.44;1755492;80;20915;-67
2022/03/29 04:39:14;;;;;;;10.00;8.55;;;;;;;10.75;40.96;98189.37;1758399;81;20926;-67
2022/03/29 04:41:43;;;;;;;10.15;7.72;;;;;;;10.80;40.97;98192.23;1757579;81;21298;-68
2022/03/29 04:44:10;;;;;;;10.30;7.83;;;;;;;10.87;40.87;98190.39;1756329;80;20997;-67
2022/03/29 04:46:38;;;;;;;9.38;6.92;;;;;;;10.95;40.78;98190.20;1737906;81;21536;-66
2022/03/29 04:49:05;;;;;;;8.85;7.70;;;;;;;11.04;40.69;98187.66;1727970;82;21004;-67
2022/03/29 04:51:34;;;;;;;8.98;7.65;;;;;;;11.09;40.65;98182.55;1728023;82;20926;-66
2022/03/29 04:54:02;;;;;;;8.43;6.92;;;;;;;11.16;40.59;98187.34;1725698;82;21284;-66
2022/03/29 04:56:29;;;;;;;10.13;7.53;;;;;;;11.22;40.51;98179.06;1728656;82;20989;-66
2022/03/29 04:58:56;;;;;;;8.40;7.33;;;;;;;11.26;40.49;98179.48;1728078;82;20904;-67
2022/03/29 05:01:24;;;;;;;10.32;7.37;;;;;;;11.31;40.43;98177.84;1727728;82;20942;-67
2022/03/29 05:03:51;;;;;;;10.18;7.60;;;;;;;11.36;40.40;98179.87;1728713;82;20947;-66
2022/03/29 05:06:18;;;;;;;10.03;7.83;;;;;;;11.38;40.37;98176.48;1728153;82;21242;-66
2022/03/29 05:08:46;;;;;;;10.53;7.20;;;;;;;11.39;40.42;98174.14;1728943;82;21441;-67
2022/03/29 05:11:14;;;;;;;12.00;8.08;;;;;;;11.42;40.40;98165.75;1729364;82;20911;-66
2022/03/29 05:13:42;;;;;;;11.70;7.65;;;;;;;11.48;40.35;98163.06;1717349;83;21465;-67
2022/03/29 05:16:11;;;;;;;12.63;7.80;;;;;;;11.57;40.29;98157.01;1726575;82;20947;-67
2022/03/29 05:18:38;;;;;;;8.68;7.37;;;;;;;11.64;40.25;98153.81;1728629;82;21257;-67
2022/03/29 05:21:08;;;;;;;10.00;7.05;;;;;;;11.74;40.12;98151.55;1728602;82;20887;-66
2022/03/29 05:23:36;;;;;;;11.48;7.62;;;;;;;11.82;40.08;98155.33;1728681;82;20983;-67
2022/03/29 05:26:04;;;;;;;8.83;7.75;;;;;;;11.87;40.01;98148.84;1727531;82;20939;-67
2022/03/29 05:28:32;;;;;;;10.75;7.95;;;;;;;11.98;39.91;98149.53;1726660;82;21005;-68
2022/03/29 05:31:00;;;;;;;10.40;7.50;;;;;;;12.06;39.83;98150.63;1727872;82;21820;-67
2022/03/29 05:33:27;;;;;;;12.20;8.35;;;;;;;12.15;39.73;98146.68;1728433;82;21020;-66
2022/03/29 05:35:54;;;;;;;8.85;7.95;;;;;;;12.24;39.66;98144.09;1725203;83;20895;-67
2022/03/29 05:38:21;;;;;;;12.65;8.23;;;;;;;12.34;39.57;98142.28;1727918;82;20947;-67
2022/03/29 05:40:49;;;;;;;11.88;8.23;;;;;;;12.48;39.43;98141.19;1728574;82;21198;-67
2022/03/29 05:43:17;;;;;;;9.50;8.40;;;;;;;12.62;39.28;98136.59;1727783;82;21726;-67
2022/03/29 05:48:51;;;;;;;13.22;8.20;;;;;;;12.73;39.12;98142.55;1727866;81;20915;-68
2022/03/29 05:50:59;;;;;;;;;;;;;;;12.95;38.89;98149.19;1731989;82;21451;-69
2022/03/29 05:53:26;;;;;;;12.18;7.50;;;;;;;13.13;38.63;98153.28;1700144;84;20080;-69
2022/03/29 05:55:54;;;;;;;10.38;8.25;;;;;;;13.30;38.52;98162.36;1700134;84;21257;-67
2022/03/29 05:58:22;;;;;;;11.20;8.43;;;;;;;13.50;38.27;98158.19;1700296;83;20989;-66
2022/03/29 06:00:51;;;;;;;10.93;8.60;;;;;;;13.72;37.86;98162.05;1699811;83;21057;-67
2022/03/29 06:03:18;;;;;;;14.03;8.98;;;;;;;13.92;37.47;98167.20;1680426;85;20998;-67
2022/03/29 06:05:46;;;;;;;9.18;8.28;;;;;;;14.07;37.20;98162.29;1700262;84;20933;-65
2022/03/29 06:08:14;;;;;;;13.98;8.63;;;;;;;14.21;36.82;98159.73;1700173;84;21253;-67
2022/03/29 06:10:41;;;;;;;12.23;8.63;;;;;;;14.29;36.64;98169.34;1690621;84;20965;-68
2022/03/29 06:13:09;;;;;;;10.72;8.28;;;;;;;14.37;36.47;98163.68;1680709;85;21609;-67
2022/03/29 06:15:38;;;;;;;9.05;7.40;;;;;;;14.44;36.31;98157.73;1677037;85;20982;-66
2022/03/29 06:18:06;;;;;;;10.32;7.87;;;;;;;14.49;36.04;98153.86;1693651;84;20970;-65
2022/03/29 06:20:35;;;;;;;10.03;7.58;;;;;;;14.49;35.99;98156.54;1690105;84;21578;-67
2022/03/29 06:23:03;;;;;;;11.70;7.90;;;;;;;14.53;36.05;98155.03;1700039;84;20934;-65
2022/03/29 06:25:32;;;;;;;11.03;7.80;;;;;;;14.67;35.86;98149.28;1700095;84;20950;-64
2022/03/29 06:28:01;;;;;;;9.58;8.00;;;;;;;14.86;35.68;98141.97;1700394;84;20994;-66
2022/03/29 06:30:28;;;;;;;11.80;8.18;;;;;;;15.10;35.41;98137.47;1697722;84;21090;-65
2022/03/29 06:32:59;;;;;;;8.63;7.40;;;;;;;15.37;35.01;98139.49;1699423;84;21243;-65
2022/03/29 06:35:28;;;;;;;10.65;8.05;;;;;;;15.53;34.74;98131.31;1679131;85;21121;-65
2022/03/29 06:37:58;;;;;;;11.90;7.90;;;;;;;15.80;34.32;98115.00;1674411;85;20883;-69
2022/03/29 06:40:27;;;;;;;12.35;8.48;;;;;;;16.27;33.82;98110.86;1700391;84;20917;-69
2022/03/29 06:42:57;;;;;;;9.65;8.68;;;;;;;16.58;33.39;98111.75;1699709;84;20926;-68
2022/03/29 06:45:26;;;;;;;10.30;8.25;;;;;;;17.12;32.63;98117.78;1700184;84;22168;-68
2022/03/29 06:47:58;;;;;;;9.68;8.68;;;;;;;17.63;32.08;98127.43;1688461;81;20947;-69
2022/03/29 06:50:26;;;;;;;11.63;9.23;;;;;;;17.93;31.79;98124.88;1693422;84;20910;-68
2022/03/29 06:52:56;;;;;;;11.12;8.93;;;;;;;18.25;31.10;98127.95;1693820;84;21072;-68
2022/03/29 06:55:24;;;;;;;12.00;9.10;;;;;;;18.37;30.59;98124.62;1676342;85;20991;-68
2022/03/29 06:57:53;;;;;;;12.03;8.95;;;;;;;18.28;30.40;98129.33;1694290;84;21894;-65
2022/03/29 07:00:21;;;;;;;11.65;8.00;;;;;;;17.98;30.59;98116.87;1692184;84;21491;-68
2022/03/29 07:02:51;;;;;;;9.50;7.83;;;;;;;17.62;31.06;98114.25;1685893;84;20937;-66
2022/03/29 07:05:19;;;;;;;15.65;8.28;;;;;;;17.40;31.43;98120.06;1677778;85;21006;-66
2022/03/29 07:07:47;;;;;;;11.33;7.80;;;;;;;17.22;31.70;98105.84;1694326;84;21471;-64
2022/03/29 07:13:04;;;;;;;;;;;;;;;16.88;32.49;98115.47;1665329;85;21626;-66
2022/03/29 07:15:34;;;;;;;10.75;8.60;;;;;;;16.75;32.92;98120.63;1686082;84;20087;-67
2022/03/29 07:18:05;;;;;;;10.65;8.05;;;;;;;16.65;33.03;98125.83;1687247;84;20976;-66
2022/03/29 07:20:35;;;;;;;11.93;9.08;;;;;;;16.48;33.18;98129.77;1685975;84;21052;-64
2022/03/29 07:23:04;;;;;;;13.03;8.68;;;;;;;16.32;33.69;98140.48;1686562;84;21800;-67
2022/03/29 07:25:32;;;;;;;14.68;9.03;;;;;;;16.08;34.46;98145.62;1682444;84;21055;-65
2022/03/29 07:28:01;;;;;;;10.43;9.33;;;;;;;15.77;35.77;98169.64;1683644;84;21561;-65
2022/03/29 07:30:31;;;;;;;12.00;8.83;;;;;;;15.56;36.67;98175.07;1677471;85;21042;-67
2022/03/29 07:33:00;;;;;;;10.70;9.25;;;;;;;15.39;37.46;98212.42;1687064;84;21508;-65
2022/03/29 07:35:31;;;;;;;16.73;11.10;;;;;;;15.20;38.61;98230.95;1682493;84;21105;-69
2022/03/29 07:37:59;;;;;;;15.75;10.00;;;;;;;15.00;39.64;98228.28;1685804;85;21030;-66
2022/03/29 07:40:30;;;;;;;14.43;10.40;;;;;;;14.78;40.28;98234.14;1687542;84;21006;-66
2022/03/29 07:42:58;;;;;;;12.70;10.98;;;;;;;14.57;41.75;98239.98;1686277;84;21501;-68
2022/03/29 07:45:27;;;;;;;14.20;10.82;;;;;;;14.33;42.18;98241.42;1684589;85;21044;-67
2022/03/29 07:47:56;;;;;;;17.40;11.55;;;;;;;14.12;43.11;98240.81;1702596;83;21758;-65
2022/03/29 07:50:28;;;;;;;14.75;10.95;;;;;;;13.96;43.97;98245.40;1711808;83;21541;-68
2022/03/29 07:52:59;;;;;;;12.47;10.48;;;;;;;13.79;44.56;98231.49;1701899;83;21445;-70
2022/03/29 07:55:27;;;;;;;13.85;11.53;;;;;;;13.56;44.88;98211.55;1746507;80;20950;-64
2022/03/29 07:57:56;;;;;;;13.43;10.90;;;;;;;13.39;45.78;98185.61;1755429;81;20934;-67
2022/03/29 08:00:33;;;;;;;12.68;11.38;;;;;;;13.26;46.78;98184.39;1725460;81;21263;-68
2022/03/29 08:03:06;;;;;;;14.80;12.03;;;;;;;13.10;47.60;98180.41;1755276;81;20904;-66
2022/03/29 08:05:35;;;;;;;12.82;11.50;;;;;;;13.03;48.43;98170.27;1755316;81;21446;-68
2022/03/29 08:08:03;;;;;;;19.30;12.43;;;;;;;13.09;49.37;98164.08;1721073;81;21532;-69
2022/03/29 08:10:32;;;;;;;13.15;10.90;;;;;;;13.29;49.76;98156.73;1753912;81;20914;-65
2022/03/29 08:13:03;;;;;;;13.85;11.68;;;;;;;13.37;49.59;98159.64;1757334;81;21499;-67
2022/03/29 08:15:33;;;;;;;12.47;11.10;;;;;;;13.59;49.50;98169.69;1755866;81;20940;-68
2022/03/29 08:18:03;;;;;;;11.95;10.75;;;;;;;13.73;49.77;98162.88;1757375;81;21543;-66
2022/03/29 08:20:32;;;;;;;14.00;10.45;;;;;;;13.86;49.87;98166.23;1754034;81;20968;-68
2022/03/29 08:23:00;;;;;;;14.50;11.03;;;;;;;13.88;48.69;98171.34;1757537;81;20927;-70
2022/03/29 08:25:31;;;;;;;12.95;10.03;;;;;;;13.81;48.36;98166.59;1754075;81;21128;-69
2022/03/29 08:28:00;;;;;;;12.03;10.45;;;;;;;13.74;48.35;98163.19;1757360;81;21545;-67
2022/03/29 08:30:29;;;;;;;13.50;10.78;;;;;;;13.71;48.54;98167.13;1758150;81;21578;-66
2022/03/29 08:32:58;;;;;;;15.35;11.40;;;;;;;13.77;48.73;98173.41;1755298;81;20895;-64
2022/03/29 08:35:26;;;;;;;12.47;10.65;;;;;;;13.82;48.74;98172.25;1758187;81;21440;-69
2022/03/29 08:37:55;;;;;;;13.28;10.95;;;;;;;13.85;49.17;98177.95;1753311;80;21304;-66
2022/03/29 08:40:26;;;;;;;16.67;11.53;;;;;;;13.88;49.51;98172.68;1756121;81;20886;-66
2022/03/29 08:42:56;;;;;;;16.75;12.07;;;;;;;13.94;49.68;98172.63;1757310;81;21083;-66
2022/03/29 08:45:28;;;;;;;15.23;11.45;;;;;;;14.01;49.56;98168.01;1725483;81;21464;-67
2022/03/29 08:47:59;;;;;;;15.53;11.33;;;;;;;14.02;49.58;98164.31;1757123;81;20894;-67
2022/03/29 08:50:30;;;;;;;16.20;11.93;;;;;;;14.06;49.88;98170.83;1758195;81;21897;-68
2022/03/29 08:52:58;;;;;;;11.73;10.53;;;;;;;14.09;50.04;98168.22;1757462;81;21425;-65
2022/03/29 08:55:26;;;;;;;11.80;9.43;;;;;;;14.19;49.97;98170.67;1758157;81;20902;-64
2022/03/29 08:57:55;;;;;;;12.23;9.83;;;;;;;14.24;49.91;98165.46;1757371;81;21438;-67
2022/03/29 09:00:28;;;;;;;14.13;9.58;;;;;;;14.26;50.05;98170.57;1758255;81;20942;-67
2022/03/29 09:02:53;;;;;;;10.82;9.45;;;;;;;14.28;50.63;98159.66;1756222;81;21245;-68
2022/03/29 09:05:24;;;;;;;11.38;9.50;;;;;;;14.29;50.08;98162.64;1753926;81;21058;-66
2022/03/29 09:07:59;;;;;;;13.53;11.22;;;;;;;14.27;50.12;98172.22;1757428;81;21536;-67
2022/03/29 09:10:48;;;;;;;12.82;10.53;;;;;;;14.26;50.30;98177.80;1756219;81;20992;-66
2022/03/29 09:13:27;;;;;;;13.25;10.93;;;;;;;14.19;50.32;98183.22;1758605;81;20953;-66
2022/03/29 09:16:00;;;;;;;11.55;10.35;;;;;;;14.08;50.58;98190.64;1755493;81;21284;-67
2022/03/29 09:18:28;;;;;;;12.37;9.88;;;;;;;13.94;50.92;98185.17;1758012;81;21008;-67
2022/03/29 09:21:17;;;;;;;11.33;9.43;;;;;;;13.81;51.46;98177.29;1753327;81;21445;-67
2022/03/29 09:24:06;;;;;;;12.47;10.98;;;;;;;13.74;51.92;98185.91;1712118;82;21476;-66
2022/03/29 09:26:36;;;;;;;17.05;12.23;;;;;;;13.80;51.95;98171.13;1756191;81;20897;-66
2022/03/29 09:29:21;;;;;;;13.08;11.25;;;;;;;13.83;52.28;98174.69;1721140;82;21221;-68
2022/03/29 09:32:06;;;;;;;13.05;9.78;;;;;;;14.54;51.48;98166.86;1748690;81;20945;-68
2022/03/29 09:34:34;;;;;;;13.05;11.65;;;;;;;15.27;50.38;98169.25;1716935;80;20932;-68
2022/03/29 09:37:04;;;;;;;14.58;11.40;;;;;;;16.36;48.87;98165.25;1755213;81;20942;-68
2022/03/29 09:39:41;;;;;;;23.12;17.65;;;;;;;17.45;46.90;98149.70;1756339;81;21007;-66
2022/03/29 09:42:13;;;;;;;12.18;10.40;;;;;;;18.64;44.44;98137.31;1757646;81;21862;-67
2022/03/29 09:44:50;;;;;;;10.65;8.83;;;;;;;19.77;41.54;98127.98;1755081;81;21519;-67
2022/03/29 09:47:23;;;;;;;9.95;8.93;;;;;;;20.53;39.18;98111.05;1755871;81;20990;-68
2022/03/29 09:49:57;;;;;;;10.28;9.18;;;;;;;21.17;37.62;98099.80;1755336;81;21555;-66
2022/03/29 09:52:31;;;;;;;9.40;8.20;;;;;;;21.73;36.65;98100.51;1756215;81;20855;-67
2022/03/29 09:55:25;;;;;;;8.98;8.05;;;;;;;22.27;35.65;98091.11;1757526;81;21144;-65
2022/03/29 09:57:54;;;;;;;9.68;8.38;;;;;;;22.60;35.27;98088.48;1746560;81;21033;-67
2022/03/29 10:00:35;;;;;;;9.18;8.18;;;;;;;23.05;33.76;98085.20;1754378;81;20997;-66
2022/03/29 10:03:09;;;;;;;9.33;8.23;;;;;;;23.44;33.20;98082.47;1757278;81;20998;-66
2022/03/29 10:05:40;;;;;;;10.08;8.33;;;;;;;23.64;32.50;98076.83;1755448;81;21062;-67
2022/03/29 10:11:04;;;;;;;9.75;7.28;;;;;;;24.28;31.07;98066.28;1714355;83;20964;-68
2022/03/29 10:13:36;;;;;;;8.55;7.10;;;;;;;24.25;30.55;98064.14;1753754;81;20912;-68
2022/03/29 10:16:05;;;;;;;9.55;7.72;;;;;;;23.80;30.58;98065.48;1757398;81;20923;-66
2022/03/29 10:18:34;;;;;;;8.63;7.35;;;;;;;23.54;30.68;98068.80;1757465;81;20972;-66
2022/03/29 10:21:04;;;;;;;8.50;7.65;;;;;;;23.28;30.39;98057.36;1757279;81;21202;-66
2022/03/29 10:23:34;;;;;;;13.08;10.35;;;;;;;23.13;30.70;98064.25;1755151;81;20978;-67
2022/03/29 10:26:03;;;;;;;8.43;7.33;;;;;;;23.03;30.12;98066.52;1696788;83;20954;-68
2022/03/29 10:28:33;;;;;;;11.48;7.40;;;;;;;22.88;30.08;98061.22;1755176;81;20988;-66
2022/03/29 10:31:01;;;;;;;12.43;7.42;;;;;;;22.69;29.68;98061.62;1757391;81;21543;-67
2022/03/29 10:33:31;;;;;;;8.40;7.12;;;;;;;22.39;30.08;98057.75;1724040;81;21236;-67
2022/03/29 10:36:12;;;;;;;8.75;7.85;;;;;;;22.05;30.90;98062.53;1757241;81;21646;-67
2022/03/29 10:38:49;;;;;;;9.75;8.73;;;;;;;22.05;30.90;98062.53;1745819;81;21001;-69
2022/03/29 10:41:34;;;;;;;9.40;7.17;;;;;;;21.87;31.40;98058.28;1711845;83;21003;-67
2022/03/29 10:44:05;;;;;;;8.63;7.08;;;;;;;21.69;31.30;98060.99;1757300;81;21555;-66
2022/03/29 10:46:45;;;;;;;9.60;7.37;;;;;;;21.69;31.30;98060.99;1742904;81;21230;-66
2022/03/29 10:49:24;;;;;;;8.50;6.67;;;;;;;21.68;31.45;98056.69;1732927;81;20998;-67
2022/03/29 10:52:09;;;;;;;13.53;7.12;;;;;;;21.92;31.25;98054.20;1720609;82;20911;-68
2022/03/29 10:54:42;;;;;;;10.70;8.40;;;;;;;21.92;31.25;98054.20;1709881;83;20958;-67
2022/03/29 10:57:24;;;;;;;8.55;7.03;;;;;;;21.95;31.01;98042.25;1728860;82;21555;-67
2022/03/29 11:00:12;;;;;;;9.03;6.97;;;;;;;21.72;31.12;98045.56;1720425;82;21251;-65
2022/03/29 11:03:03;;;;;;;10.78;6.78;;;;;;;21.72;31.12;98045.56;1704221;82;20993;-65
2022/03/29 11:05:31;;;;;;;7.37;6.67;;;;;;;21.68;31.33;98039.09;1728093;82;21507;-68
2022/03/29 11:08:12;;;;;;;8.83;7.12;;;;;;;21.68;31.21;98029.63;1728847;82;20982;-67
2022/03/29 11:10:43;;;;;;;9.30;6.62;;;;;;;21.61;31.43;98035.06;1718327;82;20998;-67
2022/03/29 11:13:25;;;;;;;8.33;7.47;;;;;;;21.70;31.55;98030.69;1728995;82;21189;-69
2022/03/29 11:15:55;;;;;;;9.93;8.95;;;;;;;21.72;31.45;98019.85;1731554;82;21485;-68
2022/03/29 11:18:38;;;;;;;9.38;8.08;;;;;;;21.72;31.45;98019.85;1728539;82;20974;-65
2022/03/29 11:21:08;;;;;;;11.55;8.53;;;;;;;21.81;31.47;98014.14;1727958;82;20919;-65
2022/03/29 11:23:40;;;;;;;10.55;8.00;;;;;;;21.75;31.46;98007.66;1727948;82;20986;-66
2022/03/29 11:26:13;;;;;;;9.43;8.08;;;;;;;21.75;31.46;98007.66;1727855;82;21300;-66
2022/03/29 11:28:51;;;;;;;10.82;8.93;;;;;;;21.75;31.65;98000.36;1718263;82;20903;-68
2022/03/29 11:35:38;;;;;;;10.35;8.80;;;;;;;21.77;31.73;98000.88;1727258;82;21572;-66
2022/03/29 11:38:09;;;;;;;10.50;8.85;;;;;;;21.50;31.06;97985.59;1728198;82;20935;-67
2022/03/29 11:40:38;;;;;;;9.38;7.50;;;;;;;21.19;31.44;97992.16;1716142;83;21770;-67
2022/03/29 11:43:10;;;;;;;12.78;11.57;;;;;;;20.90;32.06;98006.78;1727075;82;20892;-68
2022/03/29 11:45:41;;;;;;;12.55;8.93;;;;;;;20.95;32.14;97995.95;1718100;82;20947;-66
2022/03/29 11:48:12;;;;;;;10.20;8.93;;;;;;;20.89;32.37;97997.03;1666177;84;21399;-66
2022/03/29 11:50:49;;;;;;;9.75;8.45;;;;;;;20.89;32.46;97989.74;1679638;85;20959;-68
2022/03/29 11:53:34;;;;;;;9.38;8.48;;;;;;;20.87;32.36;97988.39;1691795;84;21314;-66
2022/03/29 11:56:11;;;;;;;11.30;8.50;;;;;;;20.76;32.37;97988.95;1692122;84;20986;-65